Latest Coastal Weather Observations for Rosslyn Bay Harbour

IDQ60701

Issued at 8:32 pm EST Wednesday 5 August 2020 (issued every 10 minutes, with the page automatically refreshed every 10 minutes)

About coastal observations | Map of coastal stations | Coastal observations for QLD | Marine services | Other Formats
Station Details ID: 033208 Name: ROSSLYN BAY NTC AWS Lat: -23.16 Lon: 150.79 Height: 0.0 m
Data from the previous 72 hours. | See also: Recent months for locations in Queensland
Date/Time
EST
Wind Sea
Height
m
Swell Vis
km
Cloud Weather Temp
°C
Press
hPa
Rain since
9am
mm
Dir  Spd
kts
Gust
kts
Height
m
Period
s
Dir
05/08:30pm NNW 3 5 - - - - - - - 19.5 1015.6 -
05/08:00pm N 4 7 - - - - - - - 19.8 1015.5 -
05/07:30pm NNE 7 9 - - - - - - - 20.3 1015.2 -
05/07:00pm NNE 7 10 - - - - - - - 20.3 1014.8 -
05/06:30pm NE 7 10 - - - - - - - 20.4 1014.5 -
05/06:00pm NE 6 10 - - - - - - - 20.4 1014.3 -
05/05:30pm NNE 6 10 - - - - - - - 20.6 1014.2 -
05/05:00pm NNE 5 9 - - - - - - - 20.6 1014.2 -
05/04:30pm NE 6 9 - - - - - - - 20.7 1014.1 -
05/04:00pm NE 6 11 - - - - - - - 20.7 1014.0 -
05/03:30pm NE 8 10 - - - - - - - 20.5 1013.9 -
05/03:00pm NE 7 11 - - - - - - - 20.5 1013.9 -
05/02:30pm ENE 6 9 - - - - - - - 20.4 1013.9 -
05/02:00pm ENE 6 11 - - - - - - - 20.7 1014.1 -
05/01:30pm ENE 6 10 - - - - - - - 20.9 1014.4 -
05/01:00pm NE 5 9 - - - - - - - 20.9 1014.9 -
05/12:30pm E 2 5 - - - - - - - 21.6 1015.2 -
05/12:00pm NE 2 6 - - - - - - - 21.4 1015.9 -
05/11:30am SW 1 5 - - - - - - - 20.8 1016.3 -
05/11:00am ENE 1 5 - - - - - - - 20.9 1016.6 -
05/10:30am SSW 2 5 - - - - - - - 19.8 1016.8 -
05/10:00am ENE 1 4 - - - - - - - 20.8 1017.1 -
05/09:30am ENE 3 4 - - - - - - - 19.6 1017.1 -
05/09:00am SSE 1 3 - - - - - - - 20.0 1016.9 -
05/08:30am ENE 1 2 - - - - - - - 19.1 1016.6 -
05/08:00am S 2 3 - - - - - - - 18.0 1016.4 -
05/07:30am S 2 3 - - - - - - - 17.4 1016.1 -
05/07:00am S 3 4 - - - - - - - 17.1 1015.7 -
05/06:30am S 3 4 - - - - - - - 16.9 1015.4 -
05/06:00am S 2 3 - - - - - - - 17.3 1015.2 -
05/05:30am S 2 3 - - - - - - - 17.7 1015.0 -
05/05:00am SSW 1 2 - - - - - - - 17.7 1014.7 -
05/04:30am W 1 2 - - - - - - - 17.4 1014.5 -
05/04:00am CALM 0 2 - - - - - - - 18.0 1014.5 -
05/03:30am SW 1 2 - - - - - - - 17.5 1014.4 -
05/03:00am SSW 1 2 - - - - - - - 17.8 1014.4 -
05/02:30am CALM 0 2 - - - - - - - 18.4 1014.5 -
05/02:00am CALM 0 2 - - - - - - - 18.7 1014.7 -
05/01:30am S 1 2 - - - - - - - 18.5 1014.9 -
05/01:00am S 1 3 - - - - - - - 18.4 1015.2 -
05/12:30am WNW 1 5 - - - - - - - 17.9 1015.3 -
05/12:00am N 2 3 - - - - - - - 19.3 1015.3 -
 
Date/Time
EST
Wind Sea
Height
m
Swell Vis
km
Cloud Weather Temp
°C
Press
hPa
Rain since
9am
mm
Dir  Spd
kts
Gust
kts
Height
m
Period
s
Dir
04/11:30pm N 2 3 - - - - - - - 19.3 1015.3 -
04/11:00pm N 2 4 - - - - - - - 19.1 1015.5 -
04/10:30pm N 2 4 - - - - - - - 19.1 1015.8 -
04/10:00pm N 2 3 - - - - - - - 19.1 1015.9 -
04/09:30pm N 2 4 - - - - - - - 19.2 1015.7 -
04/09:00pm NNW 3 4 - - - - - - - 19.0 1015.5 -
04/08:30pm N 3 5 - - - - - - - 19.2 1015.3 -
04/08:00pm NNE 4 5 - - - - - - - 19.8 1015.1 -
04/07:30pm NE 4 6 - - - - - - - 19.9 1015.0 -
04/07:00pm NE 5 7 - - - - - - - 19.9 1014.6 -
04/06:30pm NE 5 8 - - - - - - - 19.9 1014.3 -
04/06:00pm NE 6 9 - - - - - - - 19.8 1013.9 -
04/05:30pm NE 6 8 - - - - - - - 19.9 1013.8 -
04/05:00pm ENE 6 9 - - - - - - - 20.3 1013.6 -
04/04:30pm ENE 4 9 - - - - - - - 20.6 1013.2 -
04/04:00pm ENE 4 9 - - - - - - - 20.8 1013.3 -
04/03:30pm ENE 3 8 - - - - - - - 20.8 1013.3 -
04/03:00pm ENE 8 11 - - - - - - - 20.3 1013.2 -
04/02:30pm ENE 7 10 - - - - - - - 20.1 1013.5 -
04/02:00pm ENE 2 5 - - - - - - - 20.8 1014.0 -
04/01:30pm S 4 7 - - - - - - - 20.1 1014.4 -
04/01:00pm S 5 8 - - - - - - - 19.9 1014.8 -
04/12:30pm S 4 7 - - - - - - - 20.0 1015.4 -
04/12:00pm S 5 8 - - - - - - - 19.6 1016.0 -
04/11:30am S 6 8 - - - - - - - 19.2 1016.6 -
04/11:00am S 5 9 - - - - - - - 19.1 1017.1 -
04/10:30am S 5 7 - - - - - - - 18.5 1017.3 -
04/10:00am S 5 8 - - - - - - - 18.7 1017.6 -
04/09:30am SSE 5 8 - - - - - - - 18.7 1017.5 -
04/09:00am S 3 6 - - - - - - - 18.7 1017.3 -
04/08:30am S 3 6 - - - - - - - 17.8 1017.3 -
04/08:00am SSW 5 8 - - - - - - - 16.9 1017.0 -
04/07:30am S 3 5 - - - - - - - 15.8 1017.0 -
04/07:00am S 3 5 - - - - - - - 15.6 1016.7 -
04/06:30am S 3 5 - - - - - - - 15.5 1016.3 -
04/06:00am SSW 2 4 - - - - - - - 15.9 1016.0 -
04/05:30am S 3 6 - - - - - - - 15.6 1015.8 -
04/05:00am S 4 7 - - - - - - - 15.8 1015.7 -
04/04:30am SSW 4 7 - - - - - - - 15.7 1015.7 -
04/04:00am SSW 4 7 - - - - - - - 16.1 1015.9 -
04/03:30am SSW 3 5 - - - - - - - 16.5 1015.9 -
04/03:00am S 3 5 - - - - - - - 17.0 1016.1 -
04/02:30am SSW 3 7 - - - - - - - 17.5 1016.5 -
04/02:00am S 2 3 - - - - - - - 17.9 1016.7 -
04/01:30am S 2 3 - - - - - - - 18.5 1016.9 -
04/01:00am S 1 2 - - - - - - - 19.3 1017.0 -
04/12:30am SSW 2 3 - - - - - - - 19.5 1017.1 -
04/12:00am S 3 7 - - - - - - - 19.6 1016.4 -
 
Date/Time
EST
Wind Sea
Height
m
Swell Vis
km
Cloud Weather Temp
°C
Press
hPa
Rain since
9am
mm
Dir  Spd
kts
Gust
kts
Height
m
Period
s
Dir
03/11:30pm SW 3 6 - - - - - - - 19.6 1016.8 -
03/11:00pm W 3 7 - - - - - - - 19.6 1016.9 -
03/10:30pm SSW 3 7 - - - - - - - 19.5 1017.2 -
03/10:00pm SSW 4 8 - - - - - - - 19.6 1017.4 -
03/09:30pm SW 3 9 - - - - - - - 19.7 1017.5 -
03/09:00pm SSW 4 7 - - - - - - - 19.7 1017.3 -
03/08:30pm SW 4 7 - - - - - - - 19.7 1017.4 -
03/08:00pm SSW 4 8 - - - - - - - 19.6 1017.3 -
03/07:30pm SW 3 7 - - - - - - - 19.6 1016.9 -
03/07:00pm SW 4 8 - - - - - - - 19.6 1016.7 -
03/06:30pm SW 3 8 - - - - - - - 19.7 1016.6 -
03/06:00pm SSW 4 8 - - - - - - - 19.8 1016.4 -
03/05:30pm SSW 4 9 - - - - - - - 19.8 1016.2 -
03/05:00pm S 5 9 - - - - - - - 19.8 1016.2 -
03/04:30pm S 4 8 - - - - - - - 20.0 1016.3 -
03/04:00pm SSW 4 9 - - - - - - - 19.9 1016.4 -
03/03:30pm S 4 9 - - - - - - - 20.0 1016.5 -
03/03:00pm S 6 11 - - - - - - - 20.0 1016.5 -
03/02:30pm S 5 9 - - - - - - - 20.1 1016.8 -
03/02:00pm S 7 12 - - - - - - - 20.3 1017.1 -
03/01:30pm S 6 11 - - - - - - - 19.9 1017.5 -
03/01:00pm S 9 13 - - - - - - - 20.2 1017.9 -
03/12:30pm S 7 12 - - - - - - - 20.2 1018.4 -
03/12:00pm S 8 12 - - - - - - - 20.1 1018.9 -
03/11:30am S 6 11 - - - - - - - 20.2 1019.3 -
03/11:00am S 7 13 - - - - - - - 19.7 1019.5 -
03/10:30am S 5 10 - - - - - - - 19.8 1019.7 -
03/10:00am S 6 13 - - - - - - - 19.3 1019.7 -
03/09:30am S 6 11 - - - - - - - 19.3 1020.5 -
03/09:00am S 5 10 - - - - - - - 18.8 1020.4 -
03/08:30am SSW 5 9 - - - - - - - 18.5 1020.1 -
03/08:00am SSW 5 8 - - - - - - - 17.9 1020.0 -
03/07:30am SSW 4 9 - - - - - - - 17.4 1019.7 -
03/07:00am SSW 5 8 - - - - - - - 17.2 1019.7 -
03/06:30am SSW 5 9 - - - - - - - 17.2 1019.2 -
03/06:00am SSW 5 9 - - - - - - - 17.5 1019.0 -
03/05:30am SSW 5 10 - - - - - - - 17.7 1018.8 -
03/05:00am S 6 14 - - - - - - - 18.0 1018.9 -
03/04:30am S 8 15 - - - - - - - 18.7 1018.7 -
03/04:00am SSW 3 8 - - - - - - - 18.7 1018.8 -
03/03:30am SSW 2 6 - - - - - - - 18.8 1018.8 -
03/03:00am S 4 11 - - - - - - - 19.0 1019.0 -
03/02:30am S 7 11 - - - - - - - 19.9 1019.1 -
03/02:00am S 5 15 - - - - - - - 20.1 1019.0 -
03/01:30am S 5 9 - - - - - - - 19.5 1019.5 -
03/01:00am S 6 13 - - - - - - - 19.6 1019.9 -
03/12:30am S 8 15 - - - - - - - 19.7 1020.2 -
03/12:00am SSW 5 12 - - - - - - - 19.9 1020.3 -
 
Date/Time
EST
Wind Sea
Height
m
Swell Vis
km
Cloud Weather Temp
°C
Press
hPa
Rain since
9am
mm
Dir  Spd
kts
Gust
kts
Height
m
Period
s
Dir
02/11:30pm S 9 13 - - - - - - - 20.1 1020.6 -
02/11:00pm S 9 14 - - - - - - - 20.0 1020.7 -
02/10:30pm S 11 16 - - - - - - - 20.0 1020.7 -
02/10:00pm S 9 16 - - - - - - - 19.9 1020.9 -
02/09:30pm S 11 18 - - - - - - - 20.0 1021.0 -
02/09:00pm S 8 14 - - - - - - - 20.1 1021.0 -

Other formats

Comma delimited format used in spreadsheet applications
http://www.bom.gov.au/fwo/IDQ60701/IDQ60701.95298.axf

JavaScript Object Notation format (JSON) in row-major order
http://www.bom.gov.au/fwo/IDQ60701/IDQ60701.95298.json

Data quality

Most of these data are generated automatically and are frequently updated. Quality checks on data are not normally performed. It is possible for incorrect values to appear. Refer to information at About Latest Weather Observations and please check the disclaimer before using these data.